Map

Track Data

SID SEASON NUMBER BASIN SUBBASIN NAME ISO_TIME NATURE LAT LON WMO_WIND WMO_PRES WMO_AGENCY TRACK_TYPE DIST2LAND LANDFALL IFLAG USA_AGENCY USA_ATCF_ID USA_LAT USA_LON USA_RECORD USA_STATUS USA_WIND USA_PRES USA_SSHS USA_R34_NE USA_R34_SE USA_R34_SW USA_R34_NW USA_R50_NE USA_R50_SE USA_R50_SW USA_R50_NW USA_R64_NE USA_R64_SE USA_R64_SW USA_R64_NW USA_POCI USA_ROCI USA_RMW USA_EYE TOKYO_LAT TOKYO_LON TOKYO_GRADE TOKYO_WIND TOKYO_PRES TOKYO_R50_DIR TOKYO_R50_LONG TOKYO_R50_SHORT TOKYO_R30_DIR TOKYO_R30_LONG TOKYO_R30_SHORT TOKYO_LAND CMA_LAT CMA_LON CMA_CAT CMA_WIND CMA_PRES HKO_LAT HKO_LON HKO_CAT HKO_WIND HKO_PRES NEWDELHI_LAT NEWDELHI_LON NEWDELHI_GRADE NEWDELHI_WIND NEWDELHI_PRES NEWDELHI_CI NEWDELHI_DP NEWDELHI_POCI REUNION_LAT REUNION_LON REUNION_TYPE REUNION_WIND REUNION_PRES REUNION_TNUM REUNION_CI REUNION_RMW REUNION_R34_NE REUNION_R34_SE REUNION_R34_SW REUNION_R34_NW REUNION_R50_NE REUNION_R50_SE REUNION_R50_SW REUNION_R50_NW REUNION_R64_NE REUNION_R64_SE REUNION_R64_SW REUNION_R64_NW BOM_LAT BOM_LON BOM_TYPE BOM_WIND BOM_PRES BOM_TNUM BOM_CI BOM_RMW BOM_R34_NE BOM_R34_SE BOM_R34_SW BOM_R34_NW BOM_R50_NE BOM_R50_SE BOM_R50_SW BOM_R50_NW BOM_R64_NE BOM_R64_SE BOM_R64_SW BOM_R64_NW BOM_ROCI BOM_POCI BOM_EYE BOM_POS_METHOD BOM_PRES_METHOD NADI_LAT NADI_LON NADI_CAT NADI_WIND NADI_PRES WELLINGTON_LAT WELLINGTON_LON WELLINGTON_WIND WELLINGTON_PRES DS824_LAT DS824_LON DS824_STAGE DS824_WIND DS824_PRES TD9636_LAT TD9636_LON TD9636_STAGE TD9636_WIND TD9636_PRES TD9635_LAT TD9635_LON TD9635_WIND TD9635_PRES TD9635_ROCI NEUMANN_LAT NEUMANN_LON NEUMANN_CLASS NEUMANN_WIND NEUMANN_PRES MLC_LAT MLC_LON MLC_CLASS MLC_WIND MLC_PRES USA_GUST BOM_GUST BOM_GUST_PER REUNION_GUST REUNION_GUST_PER USA_SEAHGT USA_SEARAD_NE USA_SEARAD_SE USA_SEARAD_SW USA_SEARAD_NW STORM_SPEED STORM_DIR
1879254N14300 1879 19 NA CS NOT_NAMED 1879-09-10 12:00:00 TS 13.8000 -60.2000 main 357 351 _____________O -1 13.8000 -60.2000 TS 40 13 279
1879254N14300 1879 19 NA CS NOT_NAMED 1879-09-10 15:00:00 TS 13.9004 -60.8624 main 358 358 _____________P -1 13.9004 -60.8624 TS 42 13 279
1879254N14300 1879 19 NA CS NOT_NAMED 1879-09-10 18:00:00 TS 14.0000 -61.5000 main 369 369 _____________O -1 14.0000 -61.5000 TS 45 12 279
1879254N14300 1879 19 NA CS NOT_NAMED 1879-09-10 21:00:00 TS 14.0997 -62.1001 main 380 380 _____________P -1 14.0997 -62.1001 TS 45 12 280
1879254N14300 1879 19 NA CS NOT_NAMED 1879-09-11 00:00:00 TS 14.2000 -62.7000 main 391 391 _____________O -1 14.2000 -62.7000 TS 45 12 279
1879254N14300 1879 19 NA CS NOT_NAMED 1879-09-11 03:00:00 TS 14.2999 -63.3500 main 404 404 _____________P -1 14.2999 -63.3500 TS 45 13 279
1879254N14300 1879 19 NA CS NOT_NAMED 1879-09-11 06:00:00 TS 14.4000 -64.0000 main 425 412 _____________O -1 14.4000 -64.0000 TS 45 12 280
1879254N14300 1879 19 NA CS NOT_NAMED 1879-09-11 09:00:00 TS 14.5072 -64.5925 main 412 384 _____________P -1 14.5072 -64.5925 TS 45 12 280
1879254N14300 1879 19 NA CS NOT_NAMED 1879-09-11 12:00:00 TS 14.6000 -65.2000 main 384 359 _____________O -1 14.6000 -65.2000 TS 45 13 277
1879254N14300 1879 19 NA CS NOT_NAMED 1879-09-11 15:00:00 TS 14.6650 -65.8925 main 359 358 _____________P -1 14.6650 -65.8925 TS 45 14 274
1879254N14300 1879 19 NA CS NOT_NAMED 1879-09-11 18:00:00 TS 14.7000 -66.6000 main 359 358 _____________O -1 14.7000 -66.6000 TS 45 13 272
1879254N14300 1879 19 NA CS NOT_NAMED 1879-09-11 21:00:00 TS 14.6998 -67.2576 main 358 358 _____________P -1 14.6998 -67.2576 TS 45 13 270
1879254N14300 1879 19 NA CS NOT_NAMED 1879-09-12 00:00:00 TS 14.7000 -67.9000 main 362 328 _____________O -1 14.7000 -67.9000 TS 45 13 272
1879254N14300 1879 19 NA CS NOT_NAMED 1879-09-12 03:00:00 TS 14.7498 -68.5499 main 328 311 _____________P -1 14.7498 -68.5499 TS 45 13 275
1879254N14300 1879 19 NA CS NOT_NAMED 1879-09-12 06:00:00 TS 14.8000 -69.2000 main 311 302 _____________O -1 14.8000 -69.2000 TS 45 13 272
1879254N14300 1879 19 NA CS NOT_NAMED 1879-09-12 09:00:00 TS 14.7923 -69.8502 main 302 289 _____________P -1 14.7923 -69.8502 TS 47 13 270
1879254N14300 1879 19 NA CS NOT_NAMED 1879-09-12 12:00:00 TS 14.8000 -70.5000 main 289 276 _____________O -1 14.8000 -70.5000 TS 50 13 275
1879254N14300 1879 19 NA CS NOT_NAMED 1879-09-12 15:00:00 TS 14.8924 -71.1573 main 281 279 _____________P -1 14.8924 -71.1573 TS 50 13 279
1879254N14300 1879 19 NA CS NOT_NAMED 1879-09-12 18:00:00 TS 15.0000 -71.8000 main 291 291 _____________O -1 15.0000 -71.8000 TS 50 12 278
1879254N14300 1879 19 NA CS NOT_NAMED 1879-09-12 21:00:00 TS 15.0572 -72.4001 main 299 299 _____________P -1 15.0572 -72.4001 TS 50 12 275
1879254N14300 1879 19 NA CS NOT_NAMED 1879-09-13 00:00:00 TS 15.1000 -73.0000 main 327 325 _____________O -1 15.1000 -73.0000 TS 50 12 274
1879254N14300 1879 19 NA CS NOT_NAMED 1879-09-13 03:00:00 TS 15.1499 -73.6500 main 324 313 _____________P -1 15.1499 -73.6500 TS 50 13 275
1879254N14300 1879 19 NA CS NOT_NAMED 1879-09-13 06:00:00 TS 15.2000 -74.3000 main 316 316 _____________O -1 15.2000 -74.3000 TS 50 12 274
1879254N14300 1879 19 NA CS NOT_NAMED 1879-09-13 09:00:00 TS 15.2423 -74.9076 main 330 300 _____________P -1 15.2423 -74.9076 TS 50 12 275
1879254N14300 1879 19 NA CS NOT_NAMED 1879-09-13 12:00:00 TS 15.3000 -75.5000 main 300 279 _____________O -1 15.3000 -75.5000 TS 50 12 278
1879254N14300 1879 19 NA CS NOT_NAMED 1879-09-13 15:00:00 TS 15.3998 -76.0999 main 279 251 _____________P -1 15.3998 -76.0999 TS 50 12 280
1879254N14300 1879 19 NA CS NOT_NAMED 1879-09-13 18:00:00 TS 15.5000 -76.7000 main 251 246 _____________O -1 15.5000 -76.7000 TS 50 12 277
1879254N14300 1879 19 NA CS NOT_NAMED 1879-09-13 21:00:00 TS 15.5498 -77.3002 main 246 235 _____________P -1 15.5498 -77.3002 TS 50 12 275
1879254N14300 1879 19 NA CS NOT_NAMED 1879-09-14 00:00:00 TS 15.6000 -77.9000 main 246 246 _____________O -1 15.6000 -77.9000 TS 50 12 277
1879254N14300 1879 19 NA CS NOT_NAMED 1879-09-14 03:00:00 TS 15.6999 -78.5074 main 260 260 _____________P -1 15.6999 -78.5074 TS 50 12 280
1879254N14300 1879 19 NA CS NOT_NAMED 1879-09-14 06:00:00 TS 15.8000 -79.1000 main 278 278 _____________O -1 15.8000 -79.1000 TS 50 11 277
1879254N14300 1879 19 NA CS NOT_NAMED 1879-09-14 09:00:00 TS 15.8424 -79.6727 main 302 297 _____________P -1 15.8424 -79.6727 TS 50 11 275
1879254N14300 1879 19 NA CS NOT_NAMED 1879-09-14 12:00:00 TS 15.9000 -80.2000 main 320 290 _____________O -1 15.9000 -80.2000 TS 50 10 281
1879254N14300 1879 19 NA CS NOT_NAMED 1879-09-14 15:00:00 TS 16.0348 -80.6575 main 280 252 _____________P -1 16.0348 -80.6575 TS 50 9 289
1879254N14300 1879 19 NA CS NOT_NAMED 1879-09-14 18:00:00 TS 16.2000 -81.1000 main 252 216 _____________O -1 16.2000 -81.1000 TS 50 10 289
1879254N14300 1879 19 NA CS NOT_NAMED 1879-09-14 21:00:00 TS 16.3499 -81.5926 main 216 193 _____________P -1 16.3499 -81.5926 TS 50 10 287
1879254N14300 1879 19 NA CS NOT_NAMED 1879-09-15 00:00:00 TS 16.5000 -82.1000 main 193 168 _____________O -1 16.5000 -82.1000 TS 50 10 288
1879254N14300 1879 19 NA CS NOT_NAMED 1879-09-15 03:00:00 TS 16.6574 -82.6075 main 178 165 _____________P -1 16.6574 -82.6075 TS 50 10 287
1879254N14300 1879 19 NA CS NOT_NAMED 1879-09-15 06:00:00 TS 16.8000 -83.1000 main 165 149 _____________O -1 16.8000 -83.1000 TS 50 9 285
1879254N14300 1879 19 NA CS NOT_NAMED 1879-09-15 09:00:00 TS 16.8998 -83.5577 main 144 134 _____________P -1 16.8998 -83.5577 TS 50 9 283
1879254N14300 1879 19 NA CS NOT_NAMED 1879-09-15 12:00:00 TS 17.0000 -84.0000 main 138 135 _____________O -1 17.0000 -84.0000 TS 50 9 286
1879254N14300 1879 19 NA CS NOT_NAMED 1879-09-15 15:00:00 TS 17.1499 -84.4500 main 138 138 _____________P -1 17.1499 -84.4500 TS 50 9 289
1879254N14300 1879 19 NA CS NOT_NAMED 1879-09-15 18:00:00 TS 17.3000 -84.9000 main 156 156 _____________O -1 17.3000 -84.9000 TS 50 9 286
1879254N14300 1879 19 NA CS NOT_NAMED 1879-09-15 21:00:00 TS 17.3999 -85.3576 main 167 167 _____________P -1 17.3999 -85.3576 TS 50 9 283
1879254N14300 1879 19 NA CS NOT_NAMED 1879-09-16 00:00:00 TS 17.5000 -85.8000 main 179 179 _____________O -1 17.5000 -85.8000 TS 50 8 287
1879254N14300 1879 19 NA CS NOT_NAMED 1879-09-16 03:00:00 TS 17.6498 -86.2000 main 182 134 _____________P -1 17.6498 -86.2000 TS 50 8 292
1879254N14300 1879 19 NA CS NOT_NAMED 1879-09-16 06:00:00 TS 17.8000 -86.6000 main 134 91 _____________O -1 17.8000 -86.6000 TS 50 9 287
1879254N14300 1879 19 NA CS NOT_NAMED 1879-09-16 09:00:00 TS 17.9076 -87.0650 main 81 38 _____________P -1 17.9076 -87.0650 TS 47 9 283
1879254N14300 1879 19 NA CS NOT_NAMED 1879-09-16 12:00:00 TS 18.0000 -87.5000 main 38 11 _____________O -1 18.0000 -87.5000 TS 45 8 285
1879254N14300 1879 19 NA CS NOT_NAMED 1879-09-16 15:00:00 TS 18.0999 -87.8301 main 11 0 _____________P -1 18.0999 -87.8301 TS 42 6 289
1879254N14300 1879 19 NA CS NOT_NAMED 1879-09-16 18:00:00 TS 18.2000 -88.1000 main 0 0 _____________O -1 18.2000 -88.1000 TS 40 5 292
1879254N14300 1879 19 NA NA NOT_NAMED 1879-09-16 21:00:00 TS 18.2999 -88.3575 main 0 0 _____________P -1 18.2999 -88.3575 TS 37 5 293
1879254N14300 1879 19 NA NA NOT_NAMED 1879-09-17 00:00:00 TS 18.4000 -88.6000 main 0 0 _____________O -1 18.4000 -88.6000 TS 35 5 293
1879254N14300 1879 19 NA NA NOT_NAMED 1879-09-17 03:00:00 TS 18.5000 -88.8500 main 0 0 _____________P -1 18.5000 -88.8500 TS 32 5 293
1879254N14300 1879 19 NA NA NOT_NAMED 1879-09-17 06:00:00 TS 18.6000 -89.1000 main 0 0 _____________O -1 18.6000 -89.1000 TD 30 5 292
1879254N14300 1879 19 NA NA NOT_NAMED 1879-09-17 09:00:00 TS 18.6925 -89.3501 main 0 0 _____________P -1 18.6925 -89.3501 TD 30 5 293
1879254N14300 1879 19 NA NA NOT_NAMED 1879-09-17 12:00:00 TS 18.8000 -89.6000 main 0 0 _____________O -1 18.8000 -89.6000 TD 30 5 299
1879254N14300 1879 19 NA NA NOT_NAMED 1879-09-17 15:00:00 TS 18.9500 -89.8500 main 0 0 _____________P -1 18.9500 -89.8500 TD 30 6 302
1879254N14300 1879 19 NA NA NOT_NAMED 1879-09-17 18:00:00 TS 19.1000 -90.1000 main 0 0 _____________O -1 19.1000 -90.1000 TD 30 5 298
1879254N14300 1879 19 NA NA NOT_NAMED 1879-09-17 21:00:00 TS 19.2000 -90.3501 main 0 0 _____________P -1 19.2000 -90.3501 TD 35 5 293
1879254N14300 1879 19 NA NA NOT_NAMED 1879-09-18 00:00:00 TS 19.3000 -90.6000 main 0 0 _____________O -1 19.3000 -90.6000 TS 40 5 298
1879254N14300 1879 19 NA GM NOT_NAMED 1879-09-18 03:00:00 TS 19.4500 -90.8500 main 10 10 _____________P -1 19.4500 -90.8500 TS 45 6 303
1879254N14300 1879 19 NA GM NOT_NAMED 1879-09-18 06:00:00 TS 19.6000 -91.1000 main 41 41 _____________O -1 19.6000 -91.1000 TS 50 6 301
1879254N14300 1879 19 NA GM NOT_NAMED 1879-09-18 09:00:00 TS 19.7450 -91.3649 main 69 69 _____________P -1 19.7450 -91.3649 TS 55 5 293
1879254N14300 1879 19 NA GM NOT_NAMED 1879-09-18 12:00:00 TS 19.8000 -91.6000 main 91 88 _____________O -1 19.8000 -91.6000 TS 60 4 260
1879254N14300 1879 19 NA GM NOT_NAMED 1879-09-18 15:00:00 TS 19.6799 -91.7651 main 94 79 _____________P -1 19.6799 -91.7651 TS 70 4 223
1879254N14300 1879 19 NA GM NOT_NAMED 1879-09-18 18:00:00 TS 19.5000 -91.9000 main 79 76 _____________O -1 19.5000 -91.9000 HU 80 4 224
1879254N14300 1879 19 NA GM NOT_NAMED 1879-09-18 21:00:00 TS 19.4000 -92.0499 main 76 76 _____________P -1 19.4000 -92.0499 HU 80 3 235
1879254N14300 1879 19 NA GM NOT_NAMED 1879-09-19 00:00:00 TS 19.3000 -92.2000 main 78 67 _____________O -1 19.3000 -92.2000 HU 80 4 229
1879254N14300 1879 19 NA GM NOT_NAMED 1879-09-19 03:00:00 TS 19.1500 -92.3575 main 67 44 _____________P -1 19.1500 -92.3575 HU 77 4 223
1879254N14300 1879 19 NA GM NOT_NAMED 1879-09-19 06:00:00 TS 19.0000 -92.5000 main 44 33 _____________O -1 19.0000 -92.5000 HU 75 3 225
1879254N14300 1879 19 NA GM NOT_NAMED 1879-09-19 09:00:00 TS 18.9075 -92.6074 main 33 22 _____________P -1 18.9075 -92.6074 HU 72 3 224
1879254N14300 1879 19 NA GM NOT_NAMED 1879-09-19 12:00:00 TS 18.8000 -92.7000 main 22 10 _____________O -1 18.8000 -92.7000 HU 70 4 211
1879254N14300 1879 19 NA GM NOT_NAMED 1879-09-19 15:00:00 TS 18.6075 -92.8000 main 10 0 _____________P -1 18.6075 -92.8000 HU 67 4 205
1879254N14300 1879 19 NA NA NOT_NAMED 1879-09-19 18:00:00 TS 18.4000 -92.9000 main 0 0 _____________O -1 18.4000 -92.9000 HU 65 4 207
1879254N14300 1879 19 NA NA NOT_NAMED 1879-09-19 21:00:00 TS 18.2425 -93.0000 main 0 0 _____________P -1 18.2425 -93.0000 HU 60 4 212
1879254N14300 1879 19 NA NA NOT_NAMED 1879-09-20 00:00:00 TS 18.1000 -93.1000 main 0 0 _____________O -1 18.1000 -93.1000 TS 55 4 213
1879254N14300 1879 19 NA NA NOT_NAMED 1879-09-20 03:00:00 TS 17.9500 -93.2000 main 0 0 _____________P -1 17.9500 -93.2000 TS 47 4 212
1879254N14300 1879 19 NA NA NOT_NAMED 1879-09-20 06:00:00 TS 17.8000 -93.3000 main 0 0 _____________O -1 17.8000 -93.3000 TS 40 4 212
1879254N14300 1879 19 NA NA NOT_NAMED 1879-09-20 09:00:00 TS 17.6500 -93.4000 main 0 0 _____________P -1 17.6500 -93.4000 TS 35 4 212
1879254N14300 1879 19 NA NA NOT_NAMED 1879-09-20 12:00:00 TS 17.5000 -93.5000 main 0 _____________O -1 17.5000 -93.5000 TD 30 4 212

About IBTrACS Database

This database is a web-friendly format of International Best Track Archive for Climate Stewardship (IBTrACS), a global best track data archive curated by NOAA dating back to 1842.

Updated: 2021-10-27